Pagrindinis puslapis
METAR-TAF:

METAR-TAF

Oro uostai :

Dortmundas, Vokietija

platuma: 51-31N, ilguma: 007-37E, Aukštis: 127 m

Dabartinis oras

Ataskaita buvo paskelbta 37 minutes, ne 10:50 UTC
Vėjas 7 kt iš Šiaurės Rytų, svyruoja nuo Šiaurės ir Rytų/Pietryčių
Temperatūra 18°C
Drėgmė 45%
Slėgis 1023 hPa
Matomumas 10 km arba daugiau
nėra debesų žemiau 1500 m ir nėra kamuolinių lietaus debesų

METAR: EDLW 311050Z 04007KT 350V120 CAVOK 18/06 Q1023

Laikas: 13:27 (11:27 UTC)

Prognozė

Ataskaita buvo paskelbta 6 valandos ir 27 minutes, ne 05:00 UTC
Prognozė galioja nuo 31 metu 06 UTC su 01 metu 06 UTC
Vėjas 5 kt iš Šiaurės Rytų
Matomumas 10 km arba daugiau
nėra debesų žemiau 1500 m ir nėra kamuolinių lietaus debesų
Tapsmas
nuo 31 metu 07 UTC su 31 metu 09 UTC
Vėjas 10 kt iš Rytų/Šiaurės Rytų
Tapsmas
nuo 31 metu 15 UTC su 31 metu 17 UTC
Vėjas 5 kt iš Rytų/Šiaurės Rytų

TAF: EDLW 310500Z 3106/0106 05005KT CAVOK BECMG 3107/3109 06010KT BECMG 3115/3117 07005KT

Orai ataskaitas ir orų prognozės (METAR, TAF).

turimą stotys yra geltonos ir raudonos taškus žemėlapyje.

Perkelti pele per norėdami pamatyti stoties vardą.

Tada spustelėkite, norėdami matyti oro stebėjimo ir prognozės.

Norėdami pakeisti žemėlapį: spustelėkite ant žalios mygtukų su juodo kryžiaus žemyn,; žalią mygtuką su brūkšneliu, jei norite nutolinti; arba žalių rodyklių gretimoms žemėlapius.


METAR-TAF: